createdAt,value
2019-01-30T00:00:41.346Z,82.11
2019-01-30T00:01:41.274Z,82.02
2019-01-30T00:02:41.054Z,81.9
2019-01-30T00:03:41.043Z,82.03
2019-01-30T00:04:41.208Z,81.96
2019-01-30T00:05:41.133Z,81.76
2019-01-30T00:06:41.191Z,81.91
2019-01-30T00:07:41.076Z,81.85
2019-01-30T00:08:41.104Z,81.73
2019-01-30T00:09:41.119Z,81.84
2019-01-30T00:10:41.194Z,81.64
2019-01-30T00:11:41.093Z,81.5
2019-01-30T00:12:41.345Z,81.64
2019-01-30T00:13:41.550Z,81.61
2019-01-30T00:14:41.196Z,81.63
2019-01-30T00:15:41.070Z,81.86
2019-01-30T00:16:41.206Z,81.81
2019-01-30T00:17:41.403Z,81.55
2019-01-30T00:18:41.012Z,81.57
2019-01-30T00:19:41.010Z,81.46
2019-01-30T00:20:41.497Z,81.63
2019-01-30T00:21:40.990Z,81.58
2019-01-30T00:22:41.253Z,81.56
2019-01-30T00:24:41.096Z,81.37
2019-01-30T00:25:41.125Z,81.55
2019-01-30T00:26:41.010Z,81.25
2019-01-30T00:27:41.039Z,81.35
2019-01-30T00:28:41.069Z,81.47
2019-01-30T00:29:40.993Z,81.58
2019-01-30T00:30:41.089Z,81.52
2019-01-30T00:31:41.075Z,81.19
2019-01-30T00:32:41.094Z,81.52
2019-01-30T00:33:41.412Z,81.14
2019-01-30T00:34:41.156Z,81.3
2019-01-30T00:35:41.144Z,81.19
2019-01-30T00:36:41.125Z,80.91
2019-01-30T00:37:41.185Z,81.11
2019-01-30T00:38:42.827Z,81.26
2019-01-30T00:39:41.506Z,80.92
2019-01-30T00:40:41.555Z,81.09
2019-01-30T00:41:40.979Z,81.51
2019-01-30T00:42:41.125Z,81.26
2019-01-30T00:43:41.234Z,81.32
2019-01-30T00:44:41.502Z,81.24
2019-01-30T00:45:41.369Z,80.85
2019-01-30T00:46:40.966Z,81.03
2019-01-30T00:47:41.284Z,81.16
2019-01-30T00:48:41.389Z,81.29
2019-01-30T00:49:41.276Z,80.95
2019-01-30T00:50:42.803Z,81.25
2019-01-30T00:51:41.973Z,80.78
2019-01-30T00:52:41.632Z,81.01
2019-01-30T00:53:41.086Z,80.86
2019-01-30T00:54:42.786Z,81.11
2019-01-30T00:55:41.243Z,81.03
2019-01-30T00:56:41.538Z,81
2019-01-30T00:57:41.225Z,81.43
2019-01-30T00:58:41.000Z,81.24
2019-01-30T00:59:41.466Z,81.16
2019-01-30T01:00:41.696Z,81.17
2019-01-30T01:01:41.095Z,80.98
2019-01-30T01:02:40.949Z,81.31
2019-01-30T01:03:40.934Z,80.9
2019-01-30T01:04:41.509Z,81.12
2019-01-30T01:05:40.998Z,80.91
2019-01-30T01:06:41.188Z,81.16
2019-01-30T01:07:41.325Z,81.04
2019-01-30T01:08:41.202Z,81.09
2019-01-30T01:09:40.989Z,81.13
2019-01-30T01:10:41.239Z,81.19
2019-01-30T01:11:41.220Z,81.02
2019-01-30T01:12:41.017Z,81.24
2019-01-30T01:13:40.940Z,81.2
2019-01-30T01:14:41.249Z,81.05
2019-01-30T01:15:41.046Z,81.1
2019-01-30T01:16:41.380Z,81.41
2019-01-30T01:17:40.965Z,81.23
2019-01-30T01:18:41.186Z,81.14
2019-01-30T01:19:40.991Z,81.21
2019-01-30T01:20:41.414Z,81.29
2019-01-30T01:21:41.723Z,81.21
2019-01-30T01:22:40.962Z,81.39
2019-01-30T01:23:41.035Z,81.39
2019-01-30T01:24:41.444Z,81.42
2019-01-30T01:25:41.223Z,80.98
2019-01-30T01:26:41.106Z,80.78
2019-01-30T01:27:40.952Z,81
2019-01-30T01:28:41.240Z,81.12
2019-01-30T01:29:41.383Z,81.27
2019-01-30T01:30:41.027Z,81.25
2019-01-30T01:31:40.904Z,81.06
2019-01-30T01:32:41.221Z,80.92
2019-01-30T01:33:41.197Z,81.09
2019-01-30T01:34:41.079Z,81.02
2019-01-30T01:35:40.929Z,80.72
2019-01-30T01:36:41.061Z,80.99
2019-01-30T01:37:40.952Z,81.21
2019-01-30T01:38:40.987Z,80.79
2019-01-30T01:39:40.916Z,80.63
2019-01-30T01:40:41.213Z,80.8
2019-01-30T01:41:41.226Z,80.73
2019-01-30T01:42:41.021Z,80.64
2019-01-30T01:43:41.136Z,80.7
2019-01-30T01:44:41.137Z,80.7
2019-01-30T01:45:40.954Z,80.75
2019-01-30T01:46:41.165Z,80.72
2019-01-30T01:47:41.378Z,80.81
2019-01-30T01:48:41.177Z,80.56
2019-01-30T01:49:40.916Z,80.57
2019-01-30T01:50:41.040Z,80.57
2019-01-30T01:51:41.517Z,80.55
2019-01-30T01:52:41.099Z,80.77
2019-01-30T01:53:40.935Z,80.69
2019-01-30T01:54:41.244Z,80.65
2019-01-30T01:55:40.869Z,80.37
2019-01-30T01:56:40.982Z,80.58
2019-01-30T01:57:40.913Z,80.1
2019-01-30T01:58:41.787Z,80.03
2019-01-30T01:59:40.979Z,80.32
2019-01-30T02:00:40.984Z,80.14
2019-01-30T02:01:40.985Z,80.19
2019-01-30T02:02:41.024Z,80.08
2019-01-30T02:03:41.009Z,80.14
2019-01-30T02:04:41.377Z,80.06
2019-01-30T02:05:41.001Z,79.76
2019-01-30T02:06:41.104Z,80.04
2019-01-30T02:07:40.942Z,79.93
2019-01-30T02:08:41.113Z,80.19
2019-01-30T02:09:40.939Z,79.93
2019-01-30T02:10:40.903Z,79.69
2019-01-30T02:11:41.562Z,79.9
2019-01-30T02:12:40.963Z,79.72
2019-01-30T02:13:40.927Z,79.85
2019-01-30T02:14:40.928Z,79.84
2019-01-30T02:15:41.393Z,80.05
2019-01-30T02:16:40.910Z,80.04
2019-01-30T02:17:40.965Z,79.79
2019-01-30T02:18:40.822Z,79.65
2019-01-30T02:19:40.945Z,79.64
2019-01-30T02:20:41.091Z,79.49
2019-01-30T02:21:40.992Z,79.76
2019-01-30T02:22:41.120Z,79.81
2019-01-30T02:23:40.945Z,79.47
2019-01-30T02:24:41.005Z,79.92
2019-01-30T02:25:40.911Z,79.19
2019-01-30T02:26:41.246Z,79.31
2019-01-30T02:27:40.821Z,79.63
2019-01-30T02:28:41.364Z,79.43
2019-01-30T02:29:40.792Z,79.2
2019-01-30T02:30:47.315Z,79.07
2019-01-30T02:31:41.716Z,79.27
2019-01-30T02:32:41.071Z,79.24
2019-01-30T02:33:41.398Z,78.97
2019-01-30T02:34:41.687Z,79.14
2019-01-30T02:35:40.829Z,79.12
2019-01-30T02:36:41.010Z,78.79
2019-01-30T02:37:40.991Z,78.96
2019-01-30T02:38:41.112Z,78.86
2019-01-30T02:39:42.610Z,78.72
2019-01-30T02:40:41.130Z,78.8
2019-01-30T02:41:40.800Z,78.94
2019-01-30T02:42:41.258Z,79.33
2019-01-30T02:43:40.893Z,79.22
2019-01-30T02:44:40.993Z,78.75
2019-01-30T02:45:41.064Z,78.65
2019-01-30T02:46:40.938Z,78.8
2019-01-30T02:47:40.833Z,78.7
2019-01-30T02:48:41.075Z,78.74
2019-01-30T02:49:41.305Z,78.78
2019-01-30T02:50:40.945Z,78.61
2019-01-30T02:51:40.798Z,78.67
2019-01-30T02:52:40.914Z,78.99
2019-01-30T02:53:40.890Z,78.67
2019-01-30T02:54:40.793Z,79
2019-01-30T02:55:42.593Z,79.14
2019-01-30T02:56:41.138Z,79.03
2019-01-30T02:57:41.065Z,78.62
2019-01-30T02:58:40.829Z,78.88
2019-01-30T02:59:41.163Z,78.83
2019-01-30T03:00:41.039Z,78.74
2019-01-30T03:01:40.785Z,78.75
2019-01-30T03:02:41.207Z,78.75
2019-01-30T03:03:40.935Z,78.86
2019-01-30T03:04:41.088Z,78.56
2019-01-30T03:05:40.850Z,78.69
2019-01-30T03:06:40.759Z,78.86
2019-01-30T03:07:41.006Z,78.48
2019-01-30T03:08:41.227Z,78.24
2019-01-30T03:09:41.439Z,78.05
2019-01-30T03:10:41.053Z,78.48
2019-01-30T03:11:41.032Z,78.51
2019-01-30T03:12:41.268Z,78.68
2019-01-30T03:13:40.948Z,78.58
2019-01-30T03:14:40.834Z,78.42
2019-01-30T03:15:40.776Z,78.11
2019-01-30T03:16:40.870Z,78.35
2019-01-30T03:17:41.247Z,78.31
2019-01-30T03:18:40.912Z,78.17
2019-01-30T03:19:40.740Z,78.06
2019-01-30T03:20:40.717Z,78.17
2019-01-30T03:21:41.112Z,77.56
2019-01-30T03:22:41.264Z,77.83
2019-01-30T03:23:41.140Z,77.77
2019-01-30T03:24:41.131Z,77.98
2019-01-30T03:25:41.343Z,77.66
2019-01-30T03:26:41.040Z,77.53
2019-01-30T03:27:41.599Z,77.82
2019-01-30T03:28:41.161Z,77.73
2019-01-30T03:29:40.910Z,77.57
2019-01-30T03:30:40.705Z,77.86
2019-01-30T03:31:40.747Z,77.67
2019-01-30T03:32:40.703Z,77.62
2019-01-30T03:33:40.740Z,77.99
2019-01-30T03:34:41.101Z,77.49
2019-01-30T03:35:40.788Z,77.56
2019-01-30T03:36:41.000Z,77.84
2019-01-30T03:37:40.968Z,77.87
2019-01-30T03:38:40.890Z,77.78
2019-01-30T03:39:40.737Z,77.79
2019-01-30T03:40:41.154Z,77.61
2019-01-30T03:41:40.768Z,77.72
2019-01-30T03:42:40.713Z,77.56
2019-01-30T03:43:40.785Z,77.86
2019-01-30T03:44:40.961Z,77.85
2019-01-30T03:45:40.754Z,78.03
2019-01-30T03:46:40.771Z,77.38
2019-01-30T03:47:40.700Z,77.58
2019-01-30T03:48:40.686Z,77.83
2019-01-30T03:49:40.990Z,77.81
2019-01-30T03:50:40.853Z,77.67
2019-01-30T03:51:40.704Z,77.35
2019-01-30T03:52:40.680Z,77.37
2019-01-30T03:53:40.745Z,77.6
2019-01-30T03:54:40.706Z,77.43
2019-01-30T03:55:40.782Z,77.18
2019-01-30T03:56:40.759Z,77.13
2019-01-30T03:57:40.848Z,77.52
2019-01-30T03:58:41.179Z,77.59
2019-01-30T03:59:41.073Z,77.68
2019-01-30T04:00:40.969Z,77.7
2019-01-30T04:01:40.718Z,77.65
2019-01-30T04:02:40.826Z,77.99
2019-01-30T04:03:40.980Z,77.9
2019-01-30T04:04:41.256Z,77.82
2019-01-30T04:05:41.026Z,77.85
2019-01-30T04:06:41.012Z,77.84
2019-01-30T04:07:40.767Z,77.98
2019-01-30T04:08:40.671Z,77.83
2019-01-30T04:09:40.946Z,78.02
2019-01-30T04:10:40.933Z,78.04
2019-01-30T04:11:41.051Z,78.13
2019-01-30T04:12:40.666Z,78.1
2019-01-30T04:13:40.660Z,78.12
2019-01-30T04:14:40.685Z,78.11
2019-01-30T04:15:40.987Z,78.32
2019-01-30T04:16:41.387Z,78.43
2019-01-30T04:17:40.990Z,78.17
2019-01-30T04:18:40.783Z,78.25
2019-01-30T04:19:41.208Z,78.37
2019-01-30T04:20:40.757Z,78.45
2019-01-30T04:21:40.734Z,78.69
2019-01-30T04:22:40.919Z,79.06
2019-01-30T04:23:40.672Z,79.29
2019-01-30T04:24:40.919Z,79.23
2019-01-30T04:25:41.045Z,79.2
2019-01-30T04:26:40.783Z,79.46
2019-01-30T04:27:40.716Z,79.55
2019-01-30T04:28:41.058Z,79.6
2019-01-30T04:29:40.851Z,79.74
2019-01-30T04:30:40.749Z,79.38
2019-01-30T04:31:40.787Z,79.38
2019-01-30T04:32:40.997Z,79.5
2019-01-30T04:33:40.719Z,79.42
2019-01-30T04:34:41.143Z,79.24
2019-01-30T04:35:40.595Z,79.2
2019-01-30T04:36:40.743Z,79.21
2019-01-30T04:37:40.757Z,79.19
2019-01-30T04:38:40.601Z,79.29
2019-01-30T04:39:40.658Z,78.93
2019-01-30T04:40:40.852Z,79.03
2019-01-30T04:41:40.658Z,79.04
2019-01-30T04:42:41.060Z,78.81
2019-01-30T04:43:40.749Z,78.82
2019-01-30T04:44:40.634Z,79.13
2019-01-30T04:45:40.829Z,78.81
2019-01-30T04:46:40.981Z,78.77
2019-01-30T04:47:40.757Z,78.87
2019-01-30T04:48:40.625Z,78.88
2019-01-30T04:49:40.608Z,78.73
2019-01-30T04:50:40.830Z,78.54
2019-01-30T04:51:41.025Z,78.42
2019-01-30T04:52:40.611Z,78.64
2019-01-30T04:53:40.794Z,78.74
2019-01-30T04:54:41.053Z,78.79
2019-01-30T04:55:40.557Z,78.67
2019-01-30T04:56:40.566Z,78.72
2019-01-30T04:57:40.845Z,78.18
2019-01-30T04:58:40.784Z,78.29
2019-01-30T04:59:40.735Z,77.89
2019-01-30T05:00:41.594Z,78.15
2019-01-30T05:01:49.388Z,78.26
2019-01-30T05:02:40.937Z,78.53
2019-01-30T05:03:40.622Z,78.78
2019-01-30T05:04:40.741Z,78.54
2019-01-30T05:05:40.795Z,78.69
2019-01-30T05:06:40.630Z,78.74
2019-01-30T05:07:40.740Z,79.01
2019-01-30T05:08:40.701Z,78.98
2019-01-30T05:09:40.683Z,79.3
2019-01-30T05:10:40.709Z,79.24
2019-01-30T05:11:41.073Z,79.44
2019-01-30T05:12:40.585Z,79.79
2019-01-30T05:13:40.592Z,79.85
2019-01-30T05:14:40.557Z,80.03
2019-01-30T05:15:40.659Z,80.31
2019-01-30T05:16:40.599Z,79.99
2019-01-30T05:17:40.560Z,80.11
2019-01-30T05:18:40.616Z,80.19
2019-01-30T05:19:40.715Z,80.06
2019-01-30T05:20:40.552Z,80.1
2019-01-30T05:21:40.811Z,80.46
2019-01-30T05:22:41.049Z,80.06
2019-01-30T05:23:40.564Z,80.13
2019-01-30T05:24:40.631Z,80.24
2019-01-30T05:25:40.866Z,80.67
2019-01-30T05:26:40.737Z,80.58
2019-01-30T05:27:40.980Z,80.66
2019-01-30T05:28:40.572Z,80.9
2019-01-30T05:29:40.642Z,80.69
2019-01-30T05:30:41.415Z,80.94
2019-01-30T05:31:40.598Z,81.17
2019-01-30T05:32:40.505Z,81.38
2019-01-30T05:33:41.211Z,81.52
2019-01-30T05:34:40.571Z,81.9
2019-01-30T05:35:40.546Z,81.76
2019-01-30T05:36:40.587Z,82.02
2019-01-30T05:37:40.832Z,81.72
2019-01-30T05:38:40.717Z,81.73
2019-01-30T05:39:40.687Z,81.8
2019-01-30T05:40:41.155Z,81.57
2019-01-30T05:41:41.702Z,81.44
2019-01-30T05:42:41.676Z,81.6
2019-01-30T05:43:42.556Z,81.4
2019-01-30T05:44:40.880Z,81.39
2019-01-30T05:45:41.802Z,81.34
2019-01-30T05:46:40.856Z,81.15
2019-01-30T05:47:41.011Z,81.34
2019-01-30T05:49:42.543Z,81.29
2019-01-30T05:50:40.530Z,81.42
2019-01-30T05:51:40.643Z,80.97
2019-01-30T05:52:40.534Z,81.3
2019-01-30T05:53:41.135Z,81.37
2019-01-30T05:55:40.591Z,81.42
2019-01-30T05:56:40.582Z,81.17
2019-01-30T05:57:40.546Z,80.96
2019-01-30T05:58:40.639Z,81.28
2019-01-30T05:59:40.601Z,81.24
2019-01-30T06:00:40.910Z,81.29
2019-01-30T06:01:40.664Z,81.22
2019-01-30T06:02:40.513Z,81.22
2019-01-30T06:03:40.594Z,81.36
2019-01-30T06:04:40.503Z,81.62
2019-01-30T06:05:41.030Z,81.56
2019-01-30T06:06:40.814Z,81.53
2019-01-30T06:07:40.554Z,81.76
2019-01-30T06:08:40.775Z,81.43
2019-01-30T06:09:40.623Z,81.13
2019-01-30T06:10:40.751Z,81.26
2019-01-30T06:11:40.510Z,81.09
2019-01-30T06:12:41.575Z,80.93
2019-01-30T06:13:40.752Z,80.98
2019-01-30T06:14:40.604Z,80.84
2019-01-30T06:15:40.438Z,81.17
2019-01-30T06:16:40.465Z,81.18
2019-01-30T06:17:42.294Z,81.08
2019-01-30T06:18:40.687Z,80.64
2019-01-30T06:19:40.442Z,80.36
2019-01-30T06:20:40.591Z,80.47
2019-01-30T06:21:40.471Z,80.74
2019-01-30T06:22:41.147Z,80.09
2019-01-30T06:23:40.531Z,80.21
2019-01-30T06:24:40.956Z,80.35
2019-01-30T06:25:40.480Z,80.61
2019-01-30T06:26:40.486Z,80.27
2019-01-30T06:27:40.829Z,80.4
2019-01-30T06:28:41.119Z,80.33
2019-01-30T06:29:41.097Z,80.33
2019-01-30T06:30:40.437Z,79.97
2019-01-30T06:31:40.656Z,80.19
2019-01-30T06:32:40.681Z,80.13
2019-01-30T06:33:40.557Z,79.76
2019-01-30T06:34:40.489Z,79.9
2019-01-30T06:35:40.705Z,79.97
2019-01-30T06:36:40.484Z,79.81
2019-01-30T06:37:41.029Z,79.91
2019-01-30T06:38:40.855Z,80.02
2019-01-30T06:39:40.739Z,79.87
2019-01-30T06:40:40.919Z,80.06
2019-01-30T06:41:42.256Z,80.37
2019-01-30T06:42:40.653Z,80.01
2019-01-30T06:43:40.763Z,80.03
2019-01-30T06:44:40.516Z,80.22
2019-01-30T06:45:42.262Z,80.23
2019-01-30T06:46:41.113Z,80.22
2019-01-30T06:47:40.689Z,80.18
2019-01-30T06:48:40.502Z,80.34
2019-01-30T06:49:40.453Z,80.29
2019-01-30T06:50:41.612Z,79.88
2019-01-30T06:51:40.435Z,79.89
2019-01-30T06:52:40.496Z,79.89
2019-01-30T06:53:40.418Z,80.19
2019-01-30T06:54:41.056Z,80.13
2019-01-30T06:55:40.445Z,79.95
2019-01-30T06:56:40.401Z,79.81
2019-01-30T06:57:40.483Z,80.2
2019-01-30T06:58:40.683Z,80.16
2019-01-30T06:59:40.391Z,80.1
2019-01-30T07:00:40.395Z,80.06
2019-01-30T07:01:40.429Z,79.84
2019-01-30T07:02:41.010Z,80.2
2019-01-30T07:03:40.601Z,80.34
2019-01-30T07:04:40.448Z,80.15
2019-01-30T07:05:40.417Z,80.13
2019-01-30T07:06:40.717Z,80.19
2019-01-30T07:07:40.391Z,79.85
2019-01-30T07:08:40.758Z,80.17
2019-01-30T07:09:40.433Z,80.59
2019-01-30T07:10:40.409Z,80.64
2019-01-30T07:11:40.462Z,80.52
2019-01-30T07:12:40.481Z,80.7
2019-01-30T07:13:40.458Z,80.71
2019-01-30T07:14:40.438Z,81
2019-01-30T07:15:40.666Z,80.34
2019-01-30T07:16:40.365Z,80.49
2019-01-30T07:17:41.198Z,80.63
2019-01-30T07:18:40.412Z,80.46
2019-01-30T07:19:40.395Z,80.22
2019-01-30T07:20:40.414Z,80.11
2019-01-30T07:21:40.732Z,79.99
2019-01-30T07:22:40.406Z,79.67
2019-01-30T07:23:40.337Z,79.97
2019-01-30T07:24:40.951Z,79.71
2019-01-30T07:25:40.873Z,80
2019-01-30T07:26:40.483Z,80.2
2019-01-30T07:27:40.571Z,80.13
2019-01-30T07:28:40.377Z,80
2019-01-30T07:29:40.439Z,79.6
2019-01-30T07:30:40.416Z,79.76
2019-01-30T07:31:40.683Z,79.9
2019-01-30T07:32:42.214Z,79.84
2019-01-30T07:33:40.411Z,80.01
2019-01-30T07:34:40.338Z,80.04
2019-01-30T07:35:40.464Z,79.91
2019-01-30T07:36:40.481Z,79.8
2019-01-30T07:37:42.472Z,79.9
2019-01-30T07:38:41.420Z,80.46
2019-01-30T07:39:40.314Z,79.94
2019-01-30T07:40:42.167Z,79.88
2019-01-30T07:41:40.375Z,80.02
2019-01-30T07:42:40.659Z,80.12
2019-01-30T07:43:40.688Z,79.51
2019-01-30T07:44:50.130Z,79.43
2019-01-30T07:45:40.370Z,79.05
2019-01-30T07:46:40.688Z,79.11
2019-01-30T07:47:40.407Z,79.22
2019-01-30T07:48:40.392Z,79.23
2019-01-30T07:49:40.345Z,78.92
2019-01-30T07:50:40.716Z,78.45
2019-01-30T07:51:40.734Z,78.78
2019-01-30T07:52:40.418Z,79.12
2019-01-30T07:53:40.635Z,78.96
2019-01-30T07:54:40.472Z,79.12
2019-01-30T07:55:40.532Z,79.37
2019-01-30T07:56:40.415Z,79.08
2019-01-30T07:57:40.552Z,78.96
2019-01-30T07:58:40.324Z,78.72
2019-01-30T07:59:40.388Z,78.49
2019-01-30T08:00:40.295Z,78.58
2019-01-30T08:01:42.146Z,78.91
2019-01-30T08:02:52.516Z,79.01
2019-01-30T08:03:40.720Z,78.74
2019-01-30T08:04:40.706Z,78.56
2019-01-30T08:05:40.340Z,78.43
2019-01-30T08:06:41.545Z,78.09
2019-01-30T08:07:40.731Z,78.05
2019-01-30T08:08:40.703Z,77.71
2019-01-30T08:09:41.182Z,77.34
2019-01-30T08:10:40.334Z,77.43
2019-01-30T08:11:40.419Z,77.35
2019-01-30T08:12:40.672Z,77.27
2019-01-30T08:13:40.667Z,77.69
2019-01-30T08:14:40.670Z,77.81
2019-01-30T08:15:40.318Z,77.57
2019-01-30T08:16:40.481Z,77.67
2019-01-30T08:17:40.416Z,77.65
2019-01-30T08:18:40.827Z,77.87
2019-01-30T08:19:40.269Z,77.7
2019-01-30T08:20:40.385Z,77.65
2019-01-30T08:21:40.419Z,77.94
2019-01-30T08:22:42.108Z,77.32
2019-01-30T08:23:40.735Z,77.28
2019-01-30T08:24:40.522Z,77.42
2019-01-30T08:25:40.166Z,77.63
2019-01-30T08:26:40.307Z,77.97
2019-01-30T08:27:40.400Z,77.76
2019-01-30T08:28:40.911Z,77.79
2019-01-30T08:29:40.510Z,77.64
2019-01-30T08:30:40.330Z,77.12
2019-01-30T08:31:40.370Z,77.4
2019-01-30T08:32:41.290Z,77.54
2019-01-30T08:33:40.373Z,77.81
2019-01-30T08:34:40.259Z,77.73
2019-01-30T08:35:40.248Z,77.73
2019-01-30T08:36:40.354Z,77.66
2019-01-30T08:37:40.466Z,77.23
2019-01-30T08:38:40.287Z,77.25
2019-01-30T08:39:40.320Z,77.4
2019-01-30T08:40:40.276Z,77.37
2019-01-30T08:41:40.397Z,76.89
2019-01-30T08:42:40.353Z,76.67
2019-01-30T08:43:40.270Z,76.73
2019-01-30T08:44:46.819Z,76.5
2019-01-30T08:45:40.478Z,76.68
2019-01-30T08:46:40.242Z,76.57
2019-01-30T08:47:40.219Z,76.51
2019-01-30T08:48:40.440Z,75.86
2019-01-30T08:49:40.402Z,76.13
2019-01-30T08:50:40.300Z,76.27
2019-01-30T08:51:40.381Z,75.93
2019-01-30T08:52:41.734Z,76.13
2019-01-30T08:53:40.500Z,76.19
2019-01-30T08:54:40.212Z,76.1
2019-01-30T08:55:40.539Z,76.22
2019-01-30T08:56:52.273Z,76.46
2019-01-30T08:57:40.595Z,75.84
2019-01-30T08:58:40.219Z,75.97
2019-01-30T08:59:40.208Z,76.25
2019-01-30T09:00:40.243Z,76.08
2019-01-30T09:01:40.412Z,76.05
2019-01-30T09:02:40.482Z,76.28
2019-01-30T09:03:40.271Z,76.04
2019-01-30T09:04:40.294Z,75.68
2019-01-30T09:05:40.412Z,75.87
2019-01-30T09:06:40.302Z,75.79
2019-01-30T09:07:44.116Z,75.4
2019-01-30T09:08:40.263Z,75.94
2019-01-30T09:09:40.431Z,75.97
2019-01-30T09:10:40.262Z,75.37
2019-01-30T09:11:40.635Z,75.67
2019-01-30T09:12:40.460Z,75.68
2019-01-30T09:13:40.258Z,75.45
2019-01-30T09:14:40.360Z,75.23
2019-01-30T09:15:40.262Z,75.2
2019-01-30T09:16:40.204Z,75.18
2019-01-30T09:17:40.182Z,75.05
2019-01-30T09:18:40.504Z,75
2019-01-30T09:19:40.262Z,74.92
2019-01-30T09:20:40.207Z,74.91
2019-01-30T09:21:40.839Z,75.46
2019-01-30T09:22:40.183Z,74.79
2019-01-30T09:23:43.070Z,74.98
2019-01-30T09:24:40.183Z,74.41
2019-01-30T09:25:41.972Z,74.51
2019-01-30T09:26:40.568Z,74.94
2019-01-30T09:27:40.388Z,74.88
2019-01-30T09:28:40.181Z,74.69
2019-01-30T09:29:40.184Z,74.92
2019-01-30T09:30:40.345Z,74.86
2019-01-30T09:31:40.173Z,74.4
2019-01-30T09:32:40.505Z,74.29
2019-01-30T09:33:40.168Z,74.66
2019-01-30T09:34:40.411Z,74.61
2019-01-30T09:35:40.405Z,74.86
2019-01-30T09:36:40.399Z,75.02
2019-01-30T09:37:41.017Z,74.89
2019-01-30T09:38:40.831Z,74.67
2019-01-30T09:39:40.200Z,74.98
2019-01-30T09:40:40.583Z,74.59
2019-01-30T09:41:40.159Z,75.09
2019-01-30T09:42:40.191Z,74.84
2019-01-30T09:43:40.187Z,74.81
2019-01-30T09:44:40.516Z,74.79
2019-01-30T09:45:40.819Z,74.81
2019-01-30T09:46:40.311Z,75.11
2019-01-30T09:47:40.495Z,74.98
2019-01-30T09:48:40.494Z,75.19
2019-01-30T09:49:40.681Z,75.08
2019-01-30T09:50:40.123Z,74.96
2019-01-30T09:51:40.174Z,75.07
2019-01-30T09:52:40.984Z,75.36
2019-01-30T09:53:40.144Z,75.46
2019-01-30T09:54:40.273Z,75.56
2019-01-30T09:55:40.358Z,75.24
2019-01-30T09:56:40.465Z,75.41
2019-01-30T09:57:40.363Z,75.46
2019-01-30T09:58:40.128Z,75.57
2019-01-30T09:59:40.246Z,75.71
2019-01-30T10:00:40.114Z,75.72
2019-01-30T10:01:40.083Z,75.77
2019-01-30T10:02:40.225Z,75.57
2019-01-30T10:03:40.411Z,75.63
2019-01-30T10:04:40.275Z,75.42
2019-01-30T10:05:40.112Z,75.23
2019-01-30T10:06:40.298Z,75.3
2019-01-30T10:07:40.731Z,75.27
2019-01-30T10:08:40.195Z,75.3
2019-01-30T10:09:40.067Z,75.13
2019-01-30T10:10:40.382Z,74.83
2019-01-30T10:11:40.371Z,74.62
2019-01-30T10:12:40.236Z,74.53
2019-01-30T10:13:40.565Z,74.42
2019-01-30T10:14:40.983Z,74.6
2019-01-30T10:15:40.115Z,74.97
2019-01-30T10:16:40.303Z,74.82
2019-01-30T10:17:40.401Z,74.41
2019-01-30T10:18:40.167Z,74.43
2019-01-30T10:19:41.842Z,74.43
2019-01-30T10:20:40.144Z,74.28
2019-01-30T10:21:40.155Z,74.45
2019-01-30T10:22:40.124Z,74.36
2019-01-30T10:23:40.258Z,74.27
2019-01-30T10:25:40.263Z,73.99
2019-01-30T10:26:40.124Z,74
2019-01-30T10:27:40.183Z,74.18
2019-01-30T10:28:40.147Z,74.62
2019-01-30T10:29:40.468Z,74.56
2019-01-30T10:30:40.297Z,74.29
2019-01-30T10:31:40.063Z,73.72
2019-01-30T10:32:40.260Z,73.43
2019-01-30T10:33:46.292Z,73.63
2019-01-30T10:34:40.223Z,73.19
2019-01-30T10:35:40.128Z,73.38
2019-01-30T10:36:40.752Z,73.75
2019-01-30T10:37:40.757Z,73.73
2019-01-30T10:38:40.096Z,73.7
2019-01-30T10:39:40.051Z,73.62
2019-01-30T10:40:41.044Z,73.68
2019-01-30T10:41:40.958Z,73.74
2019-01-30T10:42:40.407Z,73.52
2019-01-30T10:43:40.083Z,73.5
2019-01-30T10:44:40.094Z,73.65
2019-01-30T10:45:40.581Z,73.34
2019-01-30T10:46:40.244Z,73.43
2019-01-30T10:47:40.574Z,73.48
2019-01-30T10:48:40.122Z,73.49
2019-01-30T10:49:40.514Z,73.31
2019-01-30T10:50:40.169Z,73.33
2019-01-30T10:51:40.146Z,73.37
2019-01-30T10:52:40.310Z,73.76
2019-01-30T10:53:40.259Z,73.63
2019-01-30T10:54:40.017Z,73.59
2019-01-30T10:55:39.981Z,73.6
2019-01-30T10:56:40.098Z,73.4
2019-01-30T10:57:40.033Z,73.25
2019-01-30T10:58:40.072Z,73.06
2019-01-30T10:59:40.039Z,73.1
2019-01-30T11:00:40.065Z,73.3
2019-01-30T11:01:40.142Z,73.54
2019-01-30T11:02:40.087Z,73.59
2019-01-30T11:03:39.970Z,73.67
2019-01-30T11:04:40.024Z,73.58
2019-01-30T11:05:40.022Z,73.55
2019-01-30T11:06:40.067Z,73.37
2019-01-30T11:07:39.974Z,73.54
2019-01-30T11:08:40.283Z,73.71
2019-01-30T11:09:40.021Z,73.76
2019-01-30T11:10:40.044Z,74.08
2019-01-30T11:11:40.080Z,74.12
2019-01-30T11:12:40.048Z,74.32
2019-01-30T11:13:40.770Z,74.24
2019-01-30T11:14:41.051Z,74.3
2019-01-30T11:15:40.169Z,74.59
2019-01-30T11:16:40.381Z,74.67
2019-01-30T11:17:40.279Z,74.82
2019-01-30T11:18:40.424Z,74.88
2019-01-30T11:19:40.067Z,74.7
2019-01-30T11:20:40.016Z,74.58
2019-01-30T11:21:40.520Z,74.62
2019-01-30T11:22:40.147Z,74.65
2019-01-30T11:23:40.234Z,74.75
2019-01-30T11:24:40.140Z,75.05
2019-01-30T11:25:40.074Z,74.97
2019-01-30T11:26:40.350Z,74.55
2019-01-30T11:27:40.050Z,74.33
2019-01-30T11:28:40.150Z,74.34
2019-01-30T11:29:40.088Z,74.19
2019-01-30T11:30:40.892Z,74.41
2019-01-30T11:31:41.279Z,74.24
2019-01-30T11:32:40.020Z,74.2
2019-01-30T11:33:40.736Z,74.21
2019-01-30T11:34:40.046Z,73.82
2019-01-30T11:35:40.051Z,73.72
2019-01-30T11:36:40.728Z,73.9
2019-01-30T11:37:40.932Z,73.82
2019-01-30T11:38:40.227Z,73.99
2019-01-30T11:39:40.908Z,73.64
2019-01-30T11:40:40.473Z,73.5
2019-01-30T11:41:41.185Z,73.47
2019-01-30T11:42:40.000Z,73.34
2019-01-30T11:43:41.106Z,73.62
2019-01-30T11:44:40.098Z,73.68
2019-01-30T11:45:40.308Z,73.4
2019-01-30T11:46:40.288Z,73.14
2019-01-30T11:47:40.034Z,73.77
2019-01-30T11:48:40.302Z,73.86
2019-01-30T11:49:40.194Z,74.13
2019-01-30T11:50:40.224Z,74.58
2019-01-30T11:51:39.952Z,74.58
2019-01-30T11:52:40.844Z,74.76
2019-01-30T11:53:40.233Z,75.04
2019-01-30T11:54:40.753Z,75.52
2019-01-30T11:55:40.419Z,75.87
2019-01-30T11:56:41.182Z,76.05
2019-01-30T11:57:40.002Z,76.24
2019-01-30T11:58:40.053Z,76.54
2019-01-30T11:59:40.273Z,76.89
2019-01-30T12:00:40.213Z,77.12
2019-01-30T12:01:40.601Z,77.25
2019-01-30T12:02:47.645Z,77.42
2019-01-30T12:03:39.965Z,77.52
2019-01-30T12:04:40.292Z,77.75
2019-01-30T12:05:40.360Z,77.72
2019-01-30T12:06:40.113Z,77.87
2019-01-30T12:07:40.227Z,78.54
2019-01-30T12:08:40.115Z,78.26
2019-01-30T12:09:40.236Z,78.5
2019-01-30T12:10:39.991Z,78.63
2019-01-30T12:11:39.923Z,78.93
2019-01-30T12:12:40.260Z,78.83
2019-01-30T12:13:40.272Z,78.85
2019-01-30T12:14:39.964Z,79.06
2019-01-30T12:15:40.060Z,79.33
2019-01-30T12:16:40.290Z,79.42
2019-01-30T12:17:40.179Z,78.52
2019-01-30T12:18:40.309Z,78.71
2019-01-30T12:19:40.055Z,78.91
2019-01-30T12:20:40.076Z,78.91
2019-01-30T12:21:40.065Z,78.95
2019-01-30T12:22:40.010Z,79.2
2019-01-30T12:23:39.888Z,79.4
2019-01-30T12:24:40.155Z,79.64
2019-01-30T12:25:40.082Z,79.57
2019-01-30T12:26:40.125Z,79.48
2019-01-30T12:27:40.143Z,79.39
2019-01-30T12:28:39.980Z,78.75
2019-01-30T12:29:40.298Z,78.58
2019-01-30T12:30:39.936Z,78.85
2019-01-30T12:31:40.287Z,78.9
2019-01-30T12:32:39.935Z,78.5
2019-01-30T12:33:40.330Z,78.45
2019-01-30T12:34:39.985Z,77.99
2019-01-30T12:35:40.248Z,78.17
2019-01-30T12:36:39.927Z,78.32
2019-01-30T12:37:40.351Z,77.79
2019-01-30T12:38:39.916Z,77.44
2019-01-30T12:39:40.009Z,77.69
2019-01-30T12:40:39.930Z,77.99
2019-01-30T12:41:40.825Z,78.22
2019-01-30T12:42:39.982Z,77.88
2019-01-30T12:43:40.267Z,77.26
2019-01-30T12:44:39.887Z,76.74
2019-01-30T12:45:40.173Z,77.3
2019-01-30T12:46:39.907Z,77.39
2019-01-30T12:47:40.080Z,77.15
2019-01-30T12:48:40.187Z,77.61
2019-01-30T12:49:40.095Z,77.49
2019-01-30T12:50:40.088Z,77.26
2019-01-30T12:51:40.047Z,77.16
2019-01-30T12:52:40.430Z,77.15
2019-01-30T12:53:39.952Z,77.05
2019-01-30T12:54:40.124Z,77.11
2019-01-30T12:55:39.824Z,77.38
2019-01-30T12:56:39.893Z,77.49
2019-01-30T12:57:40.358Z,77.96
2019-01-30T12:58:39.881Z,78.11
2019-01-30T12:59:41.244Z,78.24